Aérodrome :
LOGIN :

S'inscrire | Disclaimer

   EN    FR    IT 

 










Légende :    VFR   VFR Marginal   IFR   IFR Intensif   IFR Très Intensif
Visi : 
Plafond : 
>= 8 km
>= 3000ft
5 à 8 km
1000 à 3000 ft
1500m à 5 km
500 à 1000 ft
800 à 1500m
200 à 500 ft
< 800m
< 200 ft
Symboles :   Orages  Brouillard  Fortes neiges  Fortes précipitations  Vent > 20 kt
SIGMETs :   Divers  Orages  Givrage  Turbulence  Onde Orograph.  Cendres Volcan.






- Altitude de l'aérodrome : 184 ft
- Code IATA : BRU


EBBR - Bruxelles

DERNIER METAR :
  • 231820Z 06005KT 040V100 CAVOK 22/11 Q1013 NOSIG

METARs EXPIRÉS :
  • 231750Z 06005KT CAVOK 22/11 Q1013 NOSIG
  • 231720Z 06005KT 040V100 CAVOK 23/11 Q1013 NOSIG
  • 231650Z 06007KT 030V090 CAVOK 23/10 Q1014 NOSIG
  • 231620Z 06007KT CAVOK 24/10 Q1014 NOSIG
  • 231550Z 05009KT CAVOK 25/11 Q1014 NOSIG
  • 231520Z 06007KT 030V100 CAVOK 24/10 Q1015 NOSIG

TAF TAF EBBR
Valide du 23 à 18h jusqu'au 25 à 00h UTC


231712Z 2318/2424 06007KT CAVOK
PROB30
TEMPO 2406/2412 SHRA
TEMPO 2412/2420 4000 SHRA
PROB40
TEMPO 2412/2420 VRB15G30KT 2500 TSRA



MET'MAP, la Météo Aéronautique d'un coup d'oeil ! - Copyright ORBIFLY Décembre 2007 - Disclaimer

ORBIFLY MET'MAP TEAM :

Programmation & Développement : Alexandra Zaïnal
Sur une idée originale de : Baudouin d'Aumeries
Assistance à la programmation : Marc-Olivier Méhu
Soutien technique & logistique : Manuel Goepfert

Contact : metmap@orbifly.com




SOURCES & CREDITS :

   NOAA